Time;durP1;ratioP1;P1;durP2;ratioP2;P2;SDS_P1;SDS_P2;PMS_P1;PMS_P2;Temp;Humidity;BMP_temperature;BMP_pressure;BME280_temperature;BME280_humidity;BME280_pressure;Samples;Min_cycle;Max_cycle;Signal;HPM_P1;HPM_P2
2022/01/15 05:02:27;;;;;;;22.17;12.43;;;-0.90;99.90;;;;;;5032846;23;20555;-77
2022/01/15 05:04:55;;;;;;;19.33;11.10;;;-0.90;99.90;;;;;;4955767;28;20456;-77
2022/01/15 05:07:22;;;;;;;24.00;13.33;;;-0.90;99.90;;;;;;4955403;29;20539;-77
2022/01/15 05:09:49;;;;;;;19.17;12.37;;;-0.90;99.90;;;;;;4955254;29;20483;-77
2022/01/15 05:12:28;;;;;;;20.17;13.43;;;-0.90;99.90;;;;;;4955471;28;20508;-77
2022/01/15 05:14:55;;;;;;;22.33;13.10;;;-0.80;99.90;;;;;;4969421;23;20595;-72
2022/01/15 05:17:22;;;;;;;24.50;15.13;;;-0.80;99.90;;;;;;4955448;29;20550;-72
2022/01/15 05:19:51;;;;;;;28.83;16.17;;;-0.80;99.90;;;;;;4955005;29;20548;-72
2022/01/15 05:22:18;;;;;;;21.57;14.50;;;-0.90;99.90;;;;;;4955325;29;20583;-72
2022/01/15 05:24:45;;;;;;;23.70;15.23;;;-0.90;99.90;;;;;;4955117;28;20480;-72
2022/01/15 05:27:11;;;;;;;25.37;14.67;;;-0.90;99.90;;;;;;4955248;29;20548;-72
2022/01/15 05:29:38;;;;;;;25.80;14.00;;;-0.90;99.90;;;;;;4954844;29;20539;-72
2022/01/15 05:32:06;;;;;;;24.23;15.00;;;-1.00;99.90;;;;;;4955187;29;20537;-72
2022/01/15 05:34:33;;;;;;;20.47;12.90;;;-1.00;99.90;;;;;;4954864;28;21016;-72
2022/01/15 05:37:01;;;;;;;25.73;14.77;;;-1.00;99.90;;;;;;4955220;29;20544;-72
2022/01/15 05:39:29;;;;;;;22.27;13.00;;;-1.00;99.90;;;;;;4954823;29;20475;-72
2022/01/15 05:41:56;;;;;;;26.93;14.73;;;-1.00;99.90;;;;;;4954948;29;20453;-72
2022/01/15 05:44:23;;;;;;;29.40;17.73;;;-1.00;99.90;;;;;;4954873;28;20461;-72
2022/01/15 05:46:49;;;;;;;28.53;17.73;;;-1.00;99.90;;;;;;4954601;28;20551;-72
2022/01/15 05:49:16;;;;;;;29.87;18.47;;;-1.00;99.90;;;;;;4954718;29;20528;-72
2022/01/15 05:51:43;;;;;;;35.70;17.73;;;-1.00;99.90;;;;;;4954799;28;20555;-72
2022/01/15 05:54:12;;;;;;;32.80;17.20;;;-1.00;99.90;;;;;;4954872;29;20859;-72
2022/01/15 05:56:39;;;;;;;31.23;16.60;;;-0.90;99.90;;;;;;4954731;29;20495;-72
2022/01/15 05:59:07;;;;;;;26.73;15.20;;;-1.00;99.90;;;;;;4954594;29;20535;-72
2022/01/15 06:01:34;;;;;;;27.07;16.07;;;-1.00;99.90;;;;;;4954320;29;20881;-72
2022/01/15 06:04:01;;;;;;;33.10;16.73;;;-1.00;99.90;;;;;;4954376;29;20813;-72
2022/01/15 06:06:27;;;;;;;27.03;15.77;;;-1.00;99.90;;;;;;4954769;28;20551;-72
2022/01/15 06:08:54;;;;;;;25.00;15.80;;;-1.00;99.90;;;;;;4954268;29;20544;-72
2022/01/15 06:11:24;;;;;;;25.00;14.10;;;-1.00;99.90;;;;;;4954429;29;20531;-72
2022/01/15 06:13:51;;;;;;;31.60;17.83;;;-1.00;99.90;;;;;;4954313;29;20496;-72
2022/01/15 06:16:18;;;;;;;31.43;16.20;;;-1.10;99.90;;;;;;4954084;28;20595;-71
2022/01/15 06:18:45;;;;;;;24.53;16.33;;;-1.10;99.90;;;;;;4954379;29;20543;-72
2022/01/15 06:21:12;;;;;;;25.40;15.97;;;-1.10;99.90;;;;;;4954255;29;20548;-72
2022/01/15 06:23:39;;;;;;;24.70;15.00;;;-1.10;99.90;;;;;;4953573;29;20491;-72
2022/01/15 06:26:05;;;;;;;25.30;16.63;;;-1.10;99.90;;;;;;4953878;28;20556;-72
2022/01/15 06:28:34;;;;;;;22.93;15.60;;;-1.10;99.90;;;;;;4953340;29;20485;-72
2022/01/15 06:31:01;;;;;;;24.53;15.47;;;-1.10;99.90;;;;;;4946404;29;20450;-72
2022/01/15 06:33:28;;;;;;;20.60;13.80;;;-1.10;99.90;;;;;;4935257;29;20528;-72
2022/01/15 06:35:55;;;;;;;22.50;14.60;;;-1.10;99.90;;;;;;4950468;28;20547;-72
2022/01/15 06:38:22;;;;;;;24.83;14.93;;;-1.10;99.90;;;;;;4954174;29;20548;-72
2022/01/15 06:40:48;;;;;;;29.10;15.70;;;-1.10;99.90;;;;;;4954027;28;20543;-72
2022/01/15 06:43:15;;;;;;;27.20;14.40;;;-1.10;99.90;;;;;;4962514;28;20587;-72
2022/01/15 06:45:44;;;;;;;23.20;15.73;;;-1.10;99.90;;;;;;4958879;29;20527;-72
2022/01/15 06:48:10;;;;;;;23.83;14.77;;;-1.10;99.90;;;;;;4963883;29;20476;-72
2022/01/15 06:50:37;;;;;;;25.80;13.97;;;-1.10;99.90;;;;;;4963551;28;20480;-73
2022/01/15 06:53:04;;;;;;;22.87;13.37;;;-1.10;99.90;;;;;;4962505;28;20461;-74
2022/01/15 06:55:31;;;;;;;22.03;14.40;;;-1.10;99.90;;;;;;4963290;28;20508;-73
2022/01/15 06:57:58;;;;;;;27.03;14.00;;;-1.10;99.90;;;;;;4963985;29;20491;-74
2022/01/15 07:00:25;;;;;;;25.50;14.77;;;-1.10;99.90;;;;;;4963433;29;20452;-74
2022/01/15 07:02:53;;;;;;;25.70;14.40;;;-1.10;99.90;;;;;;4963736;28;20519;-74
2022/01/15 07:05:21;;;;;;;26.90;15.57;;;-1.10;99.90;;;;;;4965490;29;20508;-74
2022/01/15 07:07:48;;;;;;;22.70;15.50;;;-1.10;99.90;;;;;;4967324;29;20831;-72
2022/01/15 07:10:15;;;;;;;31.30;17.00;;;-1.10;99.90;;;;;;4966081;29;20460;-73
2022/01/15 07:12:42;;;;;;;33.60;18.60;;;-1.10;99.90;;;;;;4969251;28;20503;-73
2022/01/15 07:15:11;;;;;;;30.03;16.30;;;-1.20;99.90;;;;;;4967773;28;20504;-74
2022/01/15 07:17:42;;;;;;;23.63;15.50;;;-1.10;99.90;;;;;;4967539;29;20484;-73
2022/01/15 07:20:12;;;;;;;27.77;15.73;;;-1.10;99.90;;;;;;4968722;29;20453;-73
2022/01/15 07:22:40;;;;;;;25.90;15.80;;;-1.10;99.90;;;;;;4968320;29;20520;-72
2022/01/15 07:25:09;;;;;;;22.40;15.17;;;-1.20;99.90;;;;;;4967592;29;20497;-74
2022/01/15 07:27:36;;;;;;;28.23;16.80;;;-1.10;99.90;;;;;;4966632;29;20459;-73
2022/01/15 07:30:03;;;;;;;31.70;18.20;;;-1.10;99.90;;;;;;4946855;29;20457;-74
2022/01/15 07:32:30;;;;;;;34.20;18.57;;;-1.10;99.90;;;;;;4944059;29;20449;-74
2022/01/15 07:34:57;;;;;;;31.10;18.13;;;-1.20;99.90;;;;;;4941459;29;20513;-74
2022/01/15 07:37:26;;;;;;;31.63;20.00;;;-1.20;99.90;;;;;;4942734;29;20492;-74
2022/01/15 07:39:53;;;;;;;32.83;21.47;;;-1.20;99.90;;;;;;4947181;29;20489;-73
2022/01/15 07:42:21;;;;;;;28.13;19.10;;;-1.20;99.90;;;;;;4947865;29;20449;-73
2022/01/15 07:44:47;;;;;;;40.73;20.43;;;-1.20;99.90;;;;;;4950453;29;20508;-74
2022/01/15 07:47:14;;;;;;;31.73;19.80;;;-1.20;99.90;;;;;;4970766;28;20480;-74
2022/01/15 07:49:41;;;;;;;29.47;17.87;;;-1.30;99.90;;;;;;4957963;29;20438;-73
2022/01/15 07:52:09;;;;;;;29.07;17.67;;;-1.40;99.90;;;;;;4953153;29;20462;-74
2022/01/15 07:54:37;;;;;;;32.40;17.83;;;-1.50;99.90;;;;;;4952810;29;20959;-73
2022/01/15 07:57:04;;;;;;;33.60;16.20;;;-1.50;99.90;;;;;;4953469;29;20537;-74
2022/01/15 07:59:31;;;;;;;32.83;17.77;;;-1.60;99.90;;;;;;4952006;29;20521;-74
2022/01/15 08:01:58;;;;;;;34.27;18.93;;;-1.60;99.90;;;;;;4948972;29;20446;-74
2022/01/15 08:04:25;;;;;;;46.77;18.83;;;-1.50;99.90;;;;;;4947762;29;20576;-74
2022/01/15 08:06:52;;;;;;;35.83;16.80;;;-1.50;99.90;;;;;;4948196;29;20457;-74
2022/01/15 08:09:19;;;;;;;35.47;20.17;;;-1.50;99.90;;;;;;4948084;29;20486;-74
2022/01/15 08:11:47;;;;;;;30.73;18.00;;;-1.50;99.90;;;;;;4946864;29;20473;-73
2022/01/15 08:14:14;;;;;;;31.17;17.80;;;-1.50;99.90;;;;;;4946095;29;20481;-73
2022/01/15 08:16:41;;;;;;;30.80;18.87;;;-1.40;99.90;;;;;;4945981;29;20552;-74
2022/01/15 08:19:08;;;;;;;27.70;17.93;;;-1.40;99.90;;;;;;4945383;29;20461;-73
2022/01/15 08:21:35;;;;;;;29.93;18.83;;;-1.50;99.90;;;;;;4946283;29;20536;-74
2022/01/15 08:24:01;;;;;;;29.73;18.90;;;-1.40;99.90;;;;;;4948653;29;20579;-72
2022/01/15 08:26:28;;;;;;;30.37;17.77;;;-1.40;99.90;;;;;;4956429;28;20551;-72
2022/01/15 08:28:57;;;;;;;34.77;19.33;;;-1.30;99.90;;;;;;4956088;29;20938;-72
2022/01/15 08:31:24;;;;;;;36.70;21.03;;;-1.20;99.90;;;;;;4956204;28;20459;-72
2022/01/15 08:33:51;;;;;;;36.50;22.63;;;-1.10;99.90;;;;;;4956666;29;20551;-72
2022/01/15 08:36:18;;;;;;;38.63;22.57;;;-1.00;99.90;;;;;;4956312;29;20499;-73
2022/01/15 08:38:45;;;;;;;37.27;23.30;;;-0.90;99.90;;;;;;4956076;29;20456;-73
2022/01/15 08:41:14;;;;;;;40.57;23.80;;;-0.70;99.90;;;;;;4956031;29;21068;-72
2022/01/15 08:43:42;;;;;;;34.53;22.33;;;-0.60;99.90;;;;;;4949798;29;20493;-72
2022/01/15 08:46:11;;;;;;;44.33;22.13;;;-0.50;99.90;;;;;;4944361;29;20512;-72
2022/01/15 08:48:39;;;;;;;36.13;20.93;;;-0.40;99.90;;;;;;4941731;29;21016;-73
2022/01/15 08:51:06;;;;;;;32.73;20.37;;;-0.40;99.90;;;;;;4936010;29;20485;-73
2022/01/15 08:53:33;;;;;;;33.10;19.23;;;-0.30;99.90;;;;;;4936956;29;20541;-74
2022/01/15 08:56:00;;;;;;;32.50;20.17;;;-0.30;99.90;;;;;;4936740;29;20553;-77
2022/01/15 08:58:27;;;;;;;34.40;20.83;;;-0.20;99.90;;;;;;4937006;29;20897;-72
2022/01/15 09:00:55;;;;;;;36.00;21.03;;;-0.10;99.90;;;;;;4936334;29;20453;-74
2022/01/15 09:03:24;;;;;;;35.43;22.87;;;0.00;99.90;;;;;;4936561;29;20493;-72
2022/01/15 09:05:51;;;;;;;35.93;21.40;;;0.20;99.90;;;;;;4936543;29;20917;-74
2022/01/15 09:08:24;;;;;;;36.20;23.73;;;0.30;99.90;;;;;;4936293;29;20549;-72
2022/01/15 09:10:51;;;;;;;33.83;22.53;;;0.40;99.90;;;;;;4936310;29;20456;-72
2022/01/15 09:13:18;;;;;;;41.00;22.93;;;0.40;99.90;;;;;;4936227;29;20541;-72
2022/01/15 09:15:45;;;;;;;39.50;20.63;;;0.40;99.90;;;;;;4936041;29;21062;-72
2022/01/15 09:18:12;;;;;;;31.30;20.57;;;0.50;99.90;;;;;;4936444;29;20529;-74
2022/01/15 09:20:40;;;;;;;32.07;19.47;;;0.50;99.90;;;;;;4935870;29;20505;-74
2022/01/15 09:23:07;;;;;;;32.97;19.43;;;0.60;99.90;;;;;;4936054;29;20528;-74
2022/01/15 09:25:34;;;;;;;34.03;20.23;;;0.60;99.90;;;;;;4935814;29;20500;-74
2022/01/15 09:30:45;;;;;;;34.27;21.40;;;0.60;99.90;;;;;;4935815;29;20544;-74
2022/01/15 09:33:12;;;;;;;42.20;21.90;;;0.60;99.90;;;;;;4936060;29;20457;-74
2022/01/15 09:35:41;;;;;;;34.20;20.90;;;0.70;99.90;;;;;;4935958;29;20505;-73
2022/01/15 09:38:08;;;;;;;39.07;22.40;;;0.70;99.90;;;;;;4935612;29;20493;-69
2022/01/15 09:40:35;;;;;;;36.10;20.77;;;0.80;99.90;;;;;;4935605;29;20536;-74
2022/01/15 09:43:03;;;;;;;35.60;21.30;;;0.80;99.90;;;;;;4935660;29;20883;-69
2022/01/15 09:45:30;;;;;;;46.00;22.57;;;0.80;99.90;;;;;;4935539;29;20476;-73
2022/01/15 09:47:59;;;;;;;34.90;21.67;;;0.80;99.90;;;;;;4935759;29;20461;-74
2022/01/15 09:50:29;;;;;;;34.17;21.07;;;0.90;99.90;;;;;;4935205;29;20546;-72
2022/01/15 09:52:58;;;;;;;31.90;20.70;;;1.00;99.90;;;;;;4940190;29;20540;-72
2022/01/15 09:55:25;;;;;;;34.80;21.10;;;1.20;99.90;;;;;;4942809;29;20548;-72
2022/01/15 09:57:53;;;;;;;33.40;19.90;;;1.40;99.90;;;;;;4945516;28;20540;-72
2022/01/15 10:00:23;;;;;;;35.93;23.07;;;1.70;99.90;;;;;;4942861;29;21023;-72
2022/01/15 10:02:52;;;;;;;49.33;27.70;;;2.10;99.90;;;;;;4947304;29;20531;-72
2022/01/15 10:05:19;;;;;;;45.47;30.30;;;2.30;99.90;;;;;;4943191;29;20577;-72
2022/01/15 10:07:59;;;;;;;33.37;23.30;;;2.50;99.90;;;;;;4943067;29;20532;-72
2022/01/15 10:10:28;;;;;;;31.63;19.80;;;2.70;99.90;;;;;;4943767;29;20580;-73
2022/01/15 10:12:55;;;;;;;34.07;22.10;;;2.70;99.90;;;;;;4947076;29;20499;-72
2022/01/15 10:15:22;;;;;;;36.03;20.67;;;2.80;99.90;;;;;;4945815;29;20923;-73
2022/01/15 10:17:49;;;;;;;32.73;21.10;;;3.00;99.90;;;;;;4940473;28;20851;-72
2022/01/15 10:20:18;;;;;;;40.43;23.27;;;3.10;99.90;;;;;;4946641;29;20540;-72
2022/01/15 10:22:47;;;;;;;31.67;20.00;;;3.30;99.90;;;;;;4954292;29;20965;-73
2022/01/15 10:25:19;;;;;;;34.17;22.00;;;3.60;99.90;;;;;;4954020;29;20501;-73
2022/01/15 10:27:48;;;;;;;34.13;20.13;;;3.60;99.90;;;;;;4954252;29;20457;-73
2022/01/15 10:30:17;;;;;;;31.10;19.47;;;3.60;99.90;;;;;;4953713;29;21036;-72
2022/01/15 10:32:55;;;;;;;33.77;20.87;;;3.60;99.90;;;;;;4954278;29;20484;-72
2022/01/15 10:35:23;;;;;;;37.17;21.00;;;3.70;99.90;;;;;;4954052;29;21004;-73
2022/01/15 10:37:53;;;;;;;36.60;21.33;;;3.90;99.90;;;;;;4954164;28;20461;-73
2022/01/15 10:40:22;;;;;;;31.13;20.23;;;4.10;99.90;;;;;;4953540;29;20504;-73
2022/01/15 10:42:55;;;;;;;28.77;20.37;;;4.20;99.90;;;;;;4953948;29;20533;-73
2022/01/15 10:45:23;;;;;;;33.70;19.60;;;4.20;99.90;;;;;;4953811;29;20930;-73
2022/01/15 10:47:53;;;;;;;32.33;20.63;;;4.30;99.90;;;;;;4953978;29;20992;-73
2022/01/15 10:50:22;;;;;;;33.37;21.23;;;4.40;99.90;;;;;;4953637;29;20547;-73
2022/01/15 10:52:50;;;;;;;31.50;20.27;;;4.60;99.90;;;;;;4953930;28;20473;-74
2022/01/15 10:55:18;;;;;;;28.73;18.27;;;4.90;99.90;;;;;;4953383;29;20556;-73
2022/01/15 10:57:53;;;;;;;36.50;21.27;;;5.20;99.90;;;;;;4953729;29;20988;-73
2022/01/15 11:00:25;;;;;;;27.60;19.60;;;5.50;99.90;;;;;;4953522;28;20531;-74
2022/01/15 11:02:55;;;;;;;29.50;19.30;;;5.60;99.90;;;;;;4953713;29;20480;-73
2022/01/15 11:05:31;;;;;;;26.80;18.53;;;5.60;99.90;;;;;;4953395;29;20528;-73
2022/01/15 11:08:10;;;;;;;27.73;18.80;;;5.50;99.90;;;;;;4954133;29;20543;-77
2022/01/15 11:10:42;;;;;;;29.00;19.33;;;5.40;99.90;;;;;;4948724;28;20456;-78
2022/01/15 11:13:12;;;;;;;29.60;18.40;;;5.50;99.90;;;;;;4947324;28;20456;-78
2022/01/15 11:15:39;;;;;;;31.17;20.80;;;5.60;99.90;;;;;;4959517;29;20577;-79
2022/01/15 11:18:06;;;;;;;25.33;18.38;;;6.00;99.90;;;;;;4959389;28;20382;-78
2022/01/15 11:20:35;;;;;;;28.05;20.33;;;6.20;99.90;;;;;;4957819;29;20526;-79
2022/01/15 11:23:03;;;;;;;26.70;18.47;;;6.50;99.90;;;;;;4957911;28;20708;-76
2022/01/15 11:25:31;;;;;;;30.10;19.30;;;6.60;99.90;;;;;;4956755;29;20520;-76
2022/01/15 11:27:58;;;;;;;29.20;19.00;;;6.50;99.90;;;;;;4953627;29;20448;-75
2022/01/15 11:30:27;;;;;;;27.40;19.23;;;6.60;99.90;;;;;;4955059;29;20547;-74
2022/01/15 11:32:55;;;;;;;25.90;18.03;;;6.60;99.90;;;;;;4955361;29;21348;-75
2022/01/15 11:35:38;;;;;;;26.83;17.20;;;6.60;99.90;;;;;;4955860;29;20473;-75
2022/01/15 11:38:05;;;;;;;26.10;16.07;;;6.60;99.90;;;;;;4955544;29;20988;-74
2022/01/15 11:40:38;;;;;;;26.00;17.00;;;6.70;99.90;;;;;;4955324;28;20460;-74
2022/01/15 11:43:37;;;;;;;23.57;17.33;;;6.90;99.90;;;;;;4944218;29;20453;-74
2022/01/15 11:46:21;;;;;;;26.30;16.80;;;7.00;99.90;;;;;;4950710;29;20473;-74
2022/01/15 11:48:48;;;;;;;28.03;16.63;;;7.00;99.90;;;;;;4954913;29;20488;-74
2022/01/15 11:51:28;;;;;;;29.47;19.13;;;7.10;99.90;;;;;;4955366;28;20484;-74
2022/01/15 11:53:58;;;;;;;32.57;19.13;;;7.20;99.90;;;;;;4955440;29;20464;-74
2022/01/15 11:56:26;;;;;;;25.77;17.87;;;7.30;99.90;;;;;;4953916;29;21245;-74
2022/01/15 11:58:56;;;;;;;22.30;16.70;;;7.40;99.90;;;;;;4954741;29;20626;-75
2022/01/15 12:01:42;;;;;;;26.57;17.87;;;7.60;99.90;;;;;;4955398;29;20480;-75
2022/01/15 12:04:29;;;;;;;27.07;18.17;;;7.80;99.90;;;;;;4954694;29;20502;-74
2022/01/15 12:07:19;;;;;;;28.83;17.67;;;7.90;99.90;;;;;;4955771;29;20488;-74
2022/01/15 12:09:48;;;;;;;27.57;17.03;;;7.90;99.90;;;;;;4955332;29;20460;-74
2022/01/15 12:12:51;;;;;;;27.03;17.20;;;8.10;99.90;;;;;;4955437;28;20539;-74
2022/01/15 12:15:26;;;;;;;24.60;16.60;;;8.10;99.90;;;;;;4955688;29;20534;-75
2022/01/15 12:17:59;;;;;;;31.60;19.80;;;8.30;99.90;;;;;;4955367;28;20474;-75
2022/01/15 12:20:36;;;;;;;27.93;17.97;;;8.50;99.90;;;;;;4954867;29;20857;-75
2022/01/15 12:23:05;;;;;;;29.20;19.43;;;8.80;99.90;;;;;;4955201;29;20540;-75
2022/01/15 12:25:34;;;;;;;30.20;19.10;;;9.10;99.90;;;;;;4955302;28;21103;-75
2022/01/15 12:28:03;;;;;;;25.17;18.47;;;9.10;99.90;;;;;;4955324;29;20460;-75
2022/01/15 12:30:32;;;;;;;26.10;19.30;;;8.90;99.90;;;;;;4955194;29;20453;-75
2022/01/15 12:33:02;;;;;;;26.23;19.60;;;8.80;99.90;;;;;;4955292;29;20541;-74
2022/01/15 12:35:30;;;;;;;29.93;19.43;;;8.80;99.90;;;;;;4955240;29;21075;-74
2022/01/15 12:38:00;;;;;;;30.67;20.47;;;8.90;99.90;;;;;;4955264;29;20535;-75
2022/01/15 12:40:36;;;;;;;24.97;18.43;;;8.90;99.90;;;;;;4955131;29;20557;-75
2022/01/15 12:43:06;;;;;;;29.77;19.50;;;8.80;99.90;;;;;;4955388;29;20480;-75
2022/01/15 12:45:35;;;;;;;26.93;19.30;;;8.70;99.90;;;;;;4954929;28;20857;-75
2022/01/15 12:48:04;;;;;;;26.50;19.03;;;8.60;99.90;;;;;;4954905;29;20493;-74
2022/01/15 12:50:41;;;;;;;29.70;19.47;;;8.70;99.90;;;;;;4954897;29;20964;-75
2022/01/15 12:53:09;;;;;;;25.70;18.90;;;8.60;99.90;;;;;;4955387;29;20492;-75
2022/01/15 12:55:37;;;;;;;30.67;19.80;;;8.60;99.90;;;;;;4954776;29;21004;-75
2022/01/15 12:58:06;;;;;;;27.87;18.90;;;8.60;99.90;;;;;;4954925;29;20471;-75
2022/01/15 13:00:35;;;;;;;52.40;20.17;;;8.70;99.90;;;;;;4955185;29;20872;-73
2022/01/15 13:03:06;;;;;;;25.00;16.00;;;8.80;99.90;;;;;;4954880;29;20508;-66
2022/01/15 13:05:35;;;;;;;22.90;15.53;;;9.10;99.90;;;;;;4955024;29;20500;-66
2022/01/15 13:08:04;;;;;;;27.03;16.67;;;9.20;99.90;;;;;;4954873;29;20548;-67
2022/01/15 13:10:47;;;;;;;23.43;14.83;;;9.40;99.90;;;;;;4953513;29;20527;-67
2022/01/15 13:13:23;;;;;;;25.93;16.60;;;9.60;99.90;;;;;;4955720;29;20560;-74
2022/01/15 13:15:58;;;;;;;26.37;16.80;;;9.50;99.90;;;;;;4955422;29;20648;-74
2022/01/15 13:18:29;;;;;;;30.17;19.40;;;9.40;99.90;;;;;;4955239;29;20463;-74
2022/01/15 13:20:56;;;;;;;20.87;14.67;;;9.40;99.90;;;;;;4954447;28;20929;-74
2022/01/15 13:23:25;;;;;;;135.37;73.17;;;9.50;99.90;;;;;;4954992;28;20499;-74
2022/01/15 13:25:52;;;;;;;33.87;21.17;;;9.40;99.90;;;;;;4954896;28;20502;-74
2022/01/15 13:28:20;;;;;;;42.20;25.70;;;9.20;99.90;;;;;;4955118;28;20484;-74
2022/01/15 13:30:49;;;;;;;99.90;57.33;;;9.00;99.90;;;;;;4954375;29;20536;-74
2022/01/15 13:33:17;;;;;;;36.07;22.43;;;8.80;99.90;;;;;;4954665;28;20537;-74
2022/01/15 13:35:46;;;;;;;31.67;17.77;;;8.70;99.90;;;;;;4954095;28;21056;-74
2022/01/15 13:38:15;;;;;;;34.63;21.20;;;8.60;99.90;;;;;;4954836;28;20829;-74
2022/01/15 13:40:45;;;;;;;26.90;17.17;;;8.40;99.90;;;;;;4954225;28;20889;-73
2022/01/15 13:43:24;;;;;;;20.90;15.00;;;8.30;99.90;;;;;;4954821;29;20547;-74
2022/01/15 13:45:51;;;;;;;21.40;14.00;;;8.20;99.90;;;;;;4954555;28;20591;-74
2022/01/15 13:48:23;;;;;;;25.13;14.43;;;8.20;99.90;;;;;;4954443;28;20572;-74
2022/01/15 13:53:47;;;;;;;23.17;14.77;;;7.90;99.90;;;;;;4947989;29;20445;-74
2022/01/15 13:56:26;;;;;;;28.10;14.30;;;7.70;99.90;;;;;;4954393;29;20483;-74
2022/01/15 13:58:57;;;;;;;20.60;13.93;;;7.60;99.90;;;;;;4954466;28;20543;-66
2022/01/15 14:01:29;;;;;;;24.17;14.20;;;7.50;99.90;;;;;;4954392;29;20882;-73
2022/01/15 14:03:58;;;;;;;21.07;13.43;;;7.40;99.90;;;;;;4953894;29;20544;-66
2022/01/15 14:06:26;;;;;;;22.47;14.00;;;7.40;99.90;;;;;;4953352;29;20536;-65
2022/01/15 14:09:01;;;;;;;21.00;13.60;;;7.30;99.90;;;;;;4953775;28;20463;-75
2022/01/15 14:11:29;;;;;;;19.63;12.83;;;7.20;99.90;;;;;;4954028;29;20460;-73
2022/01/15 14:14:06;;;;;;;22.40;14.37;;;7.20;99.90;;;;;;4954063;29;21014;-74
2022/01/15 14:16:33;;;;;;;24.83;15.13;;;7.10;99.90;;;;;;4953811;29;20491;-74
2022/01/15 14:19:26;;;;;;;21.67;13.77;;;7.10;99.90;;;;;;4952844;28;20544;-74
2022/01/15 14:21:55;;;;;;;24.70;15.00;;;7.10;99.90;;;;;;4953695;29;20467;-74
2022/01/15 14:24:25;;;;;;;23.17;14.23;;;7.00;99.90;;;;;;4953653;28;20472;-74
2022/01/15 14:26:57;;;;;;;24.93;15.13;;;7.00;99.90;;;;;;4953618;29;20583;-74
2022/01/15 14:29:25;;;;;;;22.00;14.30;;;6.90;99.90;;;;;;4953202;29;20996;-74
2022/01/15 14:31:52;;;;;;;23.03;13.93;;;6.90;99.90;;;;;;4952988;29;20551;-74
2022/01/15 14:34:22;;;;;;;23.03;14.20;;;6.90;99.90;;;;;;4953232;28;20948;-74
2022/01/15 14:36:49;;;;;;;22.37;13.37;;;6.80;99.90;;;;;;4953549;29;20992;-74
2022/01/15 14:39:18;;;;;;;19.30;13.50;;;6.80;99.90;;;;;;4953210;29;20459;-74
2022/01/15 14:41:46;;;;;;;20.87;13.40;;;6.80;99.90;;;;;;4953568;29;20467;-74
2022/01/15 14:44:13;;;;;;;19.20;11.80;;;6.80;99.90;;;;;;4953257;29;20476;-74
2022/01/15 14:46:40;;;;;;;21.37;12.73;;;6.70;99.90;;;;;;4952913;29;20587;-74
2022/01/15 14:49:07;;;;;;;20.03;13.47;;;6.60;99.90;;;;;;4951552;28;20484;-73
2022/01/15 14:51:34;;;;;;;17.87;12.47;;;6.60;99.90;;;;;;4946407;29;20532;-75
2022/01/15 14:54:01;;;;;;;19.97;12.37;;;6.50;99.90;;;;;;4933766;29;20958;-74
2022/01/15 14:56:29;;;;;;;19.80;12.77;;;6.60;99.90;;;;;;4933647;29;20478;-74
2022/01/15 14:58:56;;;;;;;20.70;12.77;;;6.60;99.90;;;;;;4933747;29;20485;-76
2022/01/15 15:01:24;;;;;;;18.50;12.40;;;6.60;99.90;;;;;;4938403;29;20485;-76
2022/01/15 15:03:51;;;;;;;22.83;13.37;;;6.50;99.90;;;;;;4946978;29;20461;-77
2022/01/15 15:06:18;;;;;;;16.83;12.47;;;6.40;99.90;;;;;;4947650;29;20504;-77
2022/01/15 15:08:45;;;;;;;18.47;12.40;;;6.40;99.90;;;;;;4940151;29;20449;-78
2022/01/15 15:11:15;;;;;;;17.57;12.00;;;6.40;99.90;;;;;;4945100;29;20500;-77
2022/01/15 15:13:44;;;;;;;18.80;12.00;;;6.40;99.90;;;;;;4942677;28;20500;-77
2022/01/15 15:16:12;;;;;;;15.87;10.90;;;6.30;99.90;;;;;;4949850;28;20592;-77
2022/01/15 15:18:40;;;;;;;19.03;12.50;;;6.20;99.90;;;;;;4940346;29;20855;-80
2022/01/15 15:21:08;;;;;;;16.83;11.90;;;6.10;99.90;;;;;;4941415;29;20532;-81
2022/01/15 15:23:35;;;;;;;18.50;11.90;;;6.00;99.90;;;;;;4950274;29;20543;-75
2022/01/15 15:26:02;;;;;;;17.03;11.60;;;6.00;99.90;;;;;;4953477;28;20528;-77
2022/01/15 15:28:29;;;;;;;17.60;11.87;;;5.90;99.90;;;;;;4954991;29;21130;-78
2022/01/15 15:30:58;;;;;;;20.60;11.70;;;5.90;99.90;;;;;;4956465;28;20488;-80
2022/01/15 15:33:27;;;;;;;20.27;12.20;;;5.90;99.90;;;;;;4955069;29;20457;-80
2022/01/15 15:35:54;;;;;;;20.63;13.10;;;5.90;99.90;;;;;;4955248;28;20473;-79
2022/01/15 15:38:21;;;;;;;15.43;11.30;;;5.80;99.90;;;;;;4955910;28;20472;-79
2022/01/15 15:40:48;;;;;;;23.90;13.57;;;5.70;99.90;;;;;;4953772;28;20465;-78
2022/01/15 15:43:15;;;;;;;19.10;12.10;;;5.70;99.90;;;;;;4953448;29;20511;-75
2022/01/15 15:45:42;;;;;;;21.83;14.43;;;5.70;99.90;;;;;;4952778;29;20532;-74
2022/01/15 15:48:11;;;;;;;25.27;13.80;;;5.60;99.90;;;;;;4953456;29;20548;-76
2022/01/15 15:50:38;;;;;;;19.57;12.70;;;5.40;99.90;;;;;;4953742;28;20540;-77
2022/01/15 15:53:05;;;;;;;34.33;15.17;;;5.40;99.90;;;;;;4953512;29;20497;-76
2022/01/15 15:55:32;;;;;;;23.00;13.93;;;5.30;99.90;;;;;;4953673;29;20995;-75
2022/01/15 15:57:59;;;;;;;34.77;15.27;;;5.30;99.90;;;;;;4953683;29;20864;-74
2022/01/15 16:00:26;;;;;;;24.30;14.10;;;5.20;99.90;;;;;;4955118;28;20535;-74
2022/01/15 16:02:53;;;;;;;22.20;13.67;;;5.20;99.90;;;;;;4956675;29;20908;-75
2022/01/15 16:05:21;;;;;;;32.87;15.77;;;5.10;99.90;;;;;;4956480;29;20582;-74
2022/01/15 16:07:48;;;;;;;30.37;15.43;;;5.10;99.90;;;;;;4956597;29;20461;-75
2022/01/15 16:10:18;;;;;;;37.50;17.40;;;5.00;99.90;;;;;;4956187;28;20539;-74
2022/01/15 16:12:45;;;;;;;28.77;14.73;;;4.90;99.90;;;;;;4956818;29;20535;-75
2022/01/15 16:15:13;;;;;;;38.23;17.43;;;4.90;99.90;;;;;;4956291;28;20488;-74
2022/01/15 16:17:40;;;;;;;33.50;16.37;;;4.80;99.90;;;;;;4956573;29;20835;-75
2022/01/15 16:20:08;;;;;;;29.40;15.03;;;4.70;99.90;;;;;;4956127;29;20488;-74
2022/01/15 16:22:37;;;;;;;29.93;16.60;;;4.60;99.90;;;;;;4956126;29;20535;-75
2022/01/15 16:25:05;;;;;;;30.83;16.10;;;4.60;99.90;;;;;;4956353;28;20560;-76
2022/01/15 16:27:32;;;;;;;32.17;17.17;;;4.50;99.90;;;;;;4955736;29;20557;-75
2022/01/15 16:29:59;;;;;;;28.77;16.80;;;4.40;99.90;;;;;;4955405;28;20484;-74
2022/01/15 16:32:26;;;;;;;31.97;17.40;;;4.30;99.90;;;;;;4955840;28;20532;-75
2022/01/15 16:34:53;;;;;;;30.57;16.33;;;4.30;99.90;;;;;;4955846;29;20561;-75
2022/01/15 16:37:20;;;;;;;30.47;17.83;;;4.20;99.90;;;;;;4955529;28;21069;-75
2022/01/15 16:39:48;;;;;;;33.17;17.20;;;4.20;99.90;;;;;;4955338;28;20535;-74
2022/01/15 16:42:15;;;;;;;32.50;18.03;;;4.10;99.90;;;;;;4955594;29;20547;-74
2022/01/15 16:44:42;;;;;;;31.97;17.40;;;4.10;99.90;;;;;;4955189;28;21202;-75
2022/01/15 16:47:11;;;;;;;35.70;18.90;;;4.00;99.90;;;;;;4955305;28;20579;-74
2022/01/15 16:49:38;;;;;;;38.70;19.17;;;3.90;99.90;;;;;;4954772;29;20808;-75
2022/01/15 16:52:06;;;;;;;34.63;18.73;;;3.90;99.90;;;;;;4954920;29;20929;-75
2022/01/15 16:54:35;;;;;;;38.00;18.77;;;3.80;99.90;;;;;;4955094;28;20457;-75
2022/01/15 16:57:05;;;;;;;32.00;17.90;;;3.80;99.90;;;;;;4955187;28;20453;-74
2022/01/15 16:59:32;;;;;;;33.93;17.57;;;3.70;99.90;;;;;;4955040;29;20828;-75
2022/01/15 17:02:01;;;;;;;39.97;18.60;;;3.70;99.90;;;;;;4954640;29;20492;-74
2022/01/15 17:04:29;;;;;;;33.80;18.13;;;3.70;99.90;;;;;;4955049;29;20969;-74
2022/01/15 17:06:56;;;;;;;33.70;18.03;;;3.70;99.90;;;;;;4954968;29;20595;-74
2022/01/15 17:09:23;;;;;;;34.40;17.70;;;3.60;99.90;;;;;;4954586;28;20547;-74
2022/01/15 17:11:51;;;;;;;36.23;17.00;;;3.70;99.90;;;;;;4953320;28;20461;-74
2022/01/15 17:14:19;;;;;;;33.47;17.60;;;3.60;99.90;;;;;;4954473;29;20500;-74
2022/01/15 17:16:46;;;;;;;38.70;20.73;;;3.60;99.90;;;;;;4955137;29;20543;-74
2022/01/15 17:19:13;;;;;;;33.87;17.97;;;3.60;99.90;;;;;;4954641;28;20464;-74
2022/01/15 17:21:40;;;;;;;35.33;19.70;;;3.50;99.90;;;;;;4954419;28;21070;-74
2022/01/15 17:24:07;;;;;;;30.67;17.10;;;3.50;99.90;;;;;;4954902;29;20512;-74
2022/01/15 17:26:34;;;;;;;31.60;17.30;;;3.40;99.90;;;;;;4954603;29;20533;-74
2022/01/15 17:29:01;;;;;;;38.50;18.77;;;3.40;99.90;;;;;;4954052;28;20496;-74
2022/01/15 17:31:30;;;;;;;31.80;18.40;;;3.40;99.90;;;;;;4953449;28;20888;-75
2022/01/15 17:33:57;;;;;;;31.00;18.63;;;3.40;99.90;;;;;;4953779;28;20461;-74
2022/01/15 17:36:23;;;;;;;40.17;22.60;;;3.30;99.90;;;;;;4953738;29;20556;-74
2022/01/15 17:38:50;;;;;;;35.53;18.83;;;3.30;99.90;;;;;;4953524;29;20535;-74
2022/01/15 17:41:21;;;;;;;34.53;18.20;;;3.30;99.90;;;;;;4952786;29;20461;-74
2022/01/15 17:43:48;;;;;;;31.50;18.53;;;3.20;99.90;;;;;;4953376;29;20449;-73
2022/01/15 17:46:15;;;;;;;36.87;18.50;;;3.20;99.90;;;;;;4953271;28;20579;-73
2022/01/15 17:48:44;;;;;;;35.73;18.83;;;3.10;99.90;;;;;;4953522;29;20485;-74